Main page
METAR-TAF:

METAR-TAF

Airports :

Rochelle Municipal Airport (Koritz Field)

Rochelle, Illinois, United States

latitude: 41-53-35N, longitude: 089-04-42W, elevation: 781 ft

Current weather observation

The report was made 19 minutes ago, at 19:15 UTC
Wind 12 mph from the North with gusts up to 16 mph
Temperature 54°F
Humidity 35%
Pressure 30.27 in. Hg
Visibility: 10 miles
Clear sky

METAR: KRPJ 241915Z AUTO 01010G14KT 10SM CLR 12/M03 A3027 RMK AO2 T01151031

Time: 14:34 (19:34 UTC)


TAF: missing

Weather observations and forecasts of more than 4000 airports (METAR and TAF reports).

The available stations are represented by yellow and red dots on the map.

Hover mouse over dot to see the name of the station.

Then click to see weather observations and forecasts.

To change the map : click on the green buttons with a black cross to zoom in, on the green button with a dash to zoom out, or on the green arrows for adjacent maps.


METAR-TAF: